Time;durP1;ratioP1;P1;durP2;ratioP2;P2;SDS_P1;SDS_P2;PMS_P1;PMS_P2;Temp;Humidity;BMP_temperature;BMP_pressure;BME280_temperature;BME280_humidity;BME280_pressure;Samples;Min_cycle;Max_cycle;Signal;HPM_P1;HPM_P2
2022/05/22 00:01:05;;;;;;;20.55;8.13;;;;;;;;;;5020181;28;20081;-51
2022/05/22 00:03:38;;;;;;;27.27;9.25;;;;;;;;;;5019303;28;20050;-53
2022/05/22 00:06:05;;;;;;;21.10;8.93;;;;;;;;;;5021110;28;20045;-53
2022/05/22 00:08:31;;;;;;;26.38;8.27;;;;;;;;;;5021520;28;20600;-51
2022/05/22 00:11:04;;;;;;;22.23;8.40;;;;;;;;;;5022766;28;20053;-57
2022/05/22 00:13:31;;;;;;;19.92;8.13;;;;;;;;;;5002461;28;20077;-50
2022/05/22 00:18:49;;;;;;;31.45;8.48;;;;;;;;;;5023161;28;20099;-54
2022/05/22 00:21:16;;;;;;;23.70;8.25;;;;;;;;;;5023463;28;20082;-52
2022/05/22 00:23:42;;;;;;;20.83;7.97;;;;;;;;;;5023565;28;20092;-53
2022/05/22 00:26:16;;;;;;;21.77;8.73;;;;;;;;;;5022384;28;20038;-51
2022/05/22 00:28:43;;;;;;;21.35;9.05;;;;;;;;;;5021208;28;20050;-47
2022/05/22 00:31:09;;;;;;;18.20;8.57;;;;;;;;;;5018763;28;20132;-56
2022/05/22 00:33:43;;;;;;;26.08;8.98;;;;;;;;;;5021704;28;20050;-58
2022/05/22 00:36:10;;;;;;;19.80;8.57;;;;;;;;;;5022194;28;20139;-56
2022/05/22 00:38:36;;;;;;;22.25;7.70;;;;;;;;;;5020757;28;20088;-57
2022/05/22 00:41:18;;;;;;;18.92;7.05;;;;;;;;;;5020439;28;20513;-56
2022/05/22 00:43:52;;;;;;;17.90;6.32;;;;;;;;;;5038757;28;20084;-57
2022/05/22 00:46:30;;;;;;;11.73;6.28;;;;;;;;;;5039727;28;20114;-57
2022/05/22 00:49:08;;;;;;;16.13;7.72;;;;;;;;;;5039814;28;20399;-57
2022/05/22 00:52:04;;;;;;;16.25;6.72;;;;;;;;;;5042287;28;20044;-55
2022/05/22 00:54:42;;;;;;;14.80;7.18;;;;;;;;;;5031597;28;20131;-55
2022/05/22 00:57:15;;;;;;;19.98;6.43;;;;;;;;;;5038797;28;20045;-57
2022/05/22 00:59:44;;;;;;;15.80;6.88;;;;;;;;;;5042377;28;20077;-56
2022/05/22 01:02:14;;;;;;;14.05;7.70;;;;;;;;;;5040715;28;20088;-56
2022/05/22 01:04:49;;;;;;;24.10;7.80;;;;;;;;;;5038089;28;20050;-55
2022/05/22 01:07:16;;;;;;;;;;;;;;;;;;5041268;28;20467;-52
2022/05/22 01:09:42;;;;;;;20.60;8.18;;;;;;;;;;5040268;28;19983;-47
2022/05/22 01:12:17;;;;;;;18.83;8.45;;;;;;;;;;5038220;28;20539;-53
2022/05/22 01:14:44;;;;;;;22.70;7.25;;;;;;;;;;5039216;28;20053;-52
2022/05/22 01:17:10;;;;;;;18.45;7.63;;;;;;;;;;5039120;28;20046;-52
2022/05/22 01:19:59;;;;;;;21.85;8.52;;;;;;;;;;5036378;28;20584;-53
2022/05/22 01:22:29;;;;;;;22.45;8.82;;;;;;;;;;5029267;28;20072;-53
2022/05/22 01:25:04;;;;;;;15.10;7.45;;;;;;;;;;5039844;28;20095;-53
2022/05/22 01:27:30;;;;;;;21.65;7.53;;;;;;;;;;5036764;28;20139;-50
2022/05/22 01:30:12;;;;;;;23.42;8.70;;;;;;;;;;5026838;28;20049;-48
2022/05/22 01:32:46;;;;;;;23.33;9.10;;;;;;;;;;5041211;28;20053;-48
2022/05/22 01:35:13;;;;;;;;;;;;;;;;;;5039530;28;20049;-52
2022/05/22 01:37:39;;;;;;;19.83;7.53;;;;;;;;;;5038370;28;20011;-50
2022/05/22 01:40:12;;;;;;;22.70;7.40;;;;;;;;;;5037963;28;20080;-49
2022/05/22 01:42:45;;;;;;;27.07;8.00;;;;;;;;;;5024533;28;20061;-44
2022/05/22 01:45:21;;;;;;;15.00;7.53;;;;;;;;;;5019726;28;20053;-50
2022/05/22 01:47:47;;;;;;;19.83;7.40;;;;;;;;;;5018124;28;20110;-56
2022/05/22 01:50:14;;;;;;;21.83;7.88;;;;;;;;;;5016792;28;20081;-56
2022/05/22 01:52:47;;;;;;;20.30;8.02;;;;;;;;;;5016264;28;20045;-53
2022/05/22 01:55:14;;;;;;;18.80;8.57;;;;;;;;;;5019730;28;20069;-54
2022/05/22 01:57:40;;;;;;;18.05;7.13;;;;;;;;;;5021517;28;20150;-52
2022/05/22 02:00:16;;;;;;;20.52;7.60;;;;;;;;;;5017306;28;20575;-54
2022/05/22 02:02:43;;;;;;;21.17;8.50;;;;;;;;;;5020564;28;20087;-53
2022/05/22 02:05:10;;;;;;;20.60;8.43;;;;;;;;;;5017757;28;20440;-51
2022/05/22 02:10:29;;;;;;;25.65;9.18;;;;;;;;;;5016518;28;20046;-52
2022/05/22 02:13:09;;;;;;;17.02;7.07;;;;;;;;;;5020190;28;20089;-52
2022/05/22 02:15:35;;;;;;;12.73;6.78;;;;;;;;;;5018552;28;20054;-54
2022/05/22 02:18:01;;;;;;;13.05;5.60;;;;;;;;;;5015759;28;20547;-49
2022/05/22 02:20:35;;;;;;;10.43;5.38;;;;;;;;;;5017884;28;20041;-52
2022/05/22 02:23:02;;;;;;;16.02;7.05;;;;;;;;;;5022003;28;20053;-50
2022/05/22 02:25:33;;;;;;;16.30;6.50;;;;;;;;;;5022977;28;20121;-50
2022/05/22 02:28:07;;;;;;;14.52;6.47;;;;;;;;;;5023824;28;20045;-56
2022/05/22 02:30:35;;;;;;;15.85;6.30;;;;;;;;;;5021010;28;20045;-51
2022/05/22 02:33:02;;;;;;;14.70;6.68;;;;;;;;;;5020211;28;20049;-52
2022/05/22 02:35:35;;;;;;;13.02;6.20;;;;;;;;;;5014147;28;20073;-53
2022/05/22 02:38:03;;;;;;;12.07;5.95;;;;;;;;;;5017389;28;20053;-54
2022/05/22 02:40:31;;;;;;;23.98;7.53;;;;;;;;;;5016480;28;20085;-55
2022/05/22 02:43:18;;;;;;;18.17;6.90;;;;;;;;;;5033516;28;20115;-53
2022/05/22 02:45:52;;;;;;;12.73;6.10;;;;;;;;;;5028698;28;20076;-54
2022/05/22 02:48:26;;;;;;;11.55;6.38;;;;;;;;;;5038928;28;20103;-48
2022/05/22 02:50:53;;;;;;;10.93;5.80;;;;;;;;;;5037994;28;20081;-51
2022/05/22 02:53:19;;;;;;;15.35;6.88;;;;;;;;;;5037464;28;20108;-44
2022/05/22 02:55:52;;;;;;;18.02;7.40;;;;;;;;;;5037288;28;20052;-45
2022/05/22 02:58:19;;;;;;;23.77;7.10;;;;;;;;;;5035012;28;20088;-51
2022/05/22 03:00:45;;;;;;;14.75;7.63;;;;;;;;;;5035920;28;20115;-45
2022/05/22 03:03:18;;;;;;;18.77;7.57;;;;;;;;;;5038825;28;20083;-52
2022/05/22 03:08:45;;;;;;;17.38;7.60;;;;;;;;;;5006957;28;20095;-55
2022/05/22 03:11:11;;;;;;;17.15;7.18;;;;;;;;;;5036574;28;20099;-54
2022/05/22 03:13:38;;;;;;;15.77;7.38;;;;;;;;;;5038307;28;20076;-51
2022/05/22 03:16:11;;;;;;;17.05;7.78;;;;;;;;;;5037960;28;20095;-51
2022/05/22 03:18:39;;;;;;;11.67;6.00;;;;;;;;;;5036924;28;20049;-53
2022/05/22 03:21:05;;;;;;;16.00;6.53;;;;;;;;;;5037971;28;20080;-44
2022/05/22 03:23:38;;;;;;;11.07;6.38;;;;;;;;;;5038548;28;20158;-52
2022/05/22 03:26:05;;;;;;;11.32;6.90;;;;;;;;;;5037956;28;20052;-52
2022/05/22 03:28:31;;;;;;;25.17;8.05;;;;;;;;;;5044206;28;20103;-55
2022/05/22 03:31:04;;;;;;;49.47;10.38;;;;;;;;;;5042739;28;20080;-53
2022/05/22 03:33:31;;;;;;;39.22;10.93;;;;;;;;;;5042574;28;20049;-55
2022/05/22 03:35:57;;;;;;;46.80;13.10;;;;;;;;;;5045635;28;20088;-54
2022/05/22 03:38:30;;;;;;;49.65;12.50;;;;;;;;;;5044661;28;20096;-55
2022/05/22 03:40:58;;;;;;;44.28;12.23;;;;;;;;;;5044420;28;20081;-53
2022/05/22 03:43:24;;;;;;;34.33;11.82;;;;;;;;;;5047189;28;20096;-48
2022/05/22 03:45:57;;;;;;;28.27;10.30;;;;;;;;;;5044746;28;20501;-49
2022/05/22 03:48:24;;;;;;;28.02;10.52;;;;;;;;;;5044222;28;20127;-52
2022/05/22 03:50:50;;;;;;;34.95;11.38;;;;;;;;;;5046082;28;20057;-46
2022/05/22 03:53:23;;;;;;;28.50;8.52;;;;;;;;;;5043815;28;20099;-49
2022/05/22 03:55:50;;;;;;;22.45;8.57;;;;;;;;;;5044251;28;20050;-51
2022/05/22 03:58:19;;;;;;;29.80;8.63;;;;;;;;;;5042048;28;20528;-51
2022/05/22 04:00:52;;;;;;;31.83;10.07;;;;;;;;;;5047612;28;20087;-55
2022/05/22 04:03:19;;;;;;;32.30;10.02;;;;;;;;;;5042473;28;20550;-55
2022/05/22 04:05:45;;;;;;;25.38;9.93;;;;;;;;;;5043178;28;20049;-52
2022/05/22 04:08:19;;;;;;;30.75;10.68;;;;;;;;;;5042644;28;20132;-54
2022/05/22 04:10:45;;;;;;;31.60;11.55;;;;;;;;;;5041980;28;20073;-55
2022/05/22 04:13:11;;;;;;;24.00;9.82;;;;;;;;;;5040347;28;20095;-54
2022/05/22 04:15:50;;;;;;;22.15;10.40;;;;;;;;;;5043339;28;20072;-56
2022/05/22 04:18:18;;;;;;;43.97;13.23;;;;;;;;;;5043417;28;20056;-49
2022/05/22 04:20:51;;;;;;;47.67;12.63;;;;;;;;;;5041226;28;20471;-47
2022/05/22 04:26:10;;;;;;;48.72;12.52;;;;;;;;;;5043512;28;20413;-53
2022/05/22 04:28:37;;;;;;;51.92;12.25;;;;;;;;;;5043715;28;20443;-53
2022/05/22 04:31:04;;;;;;;60.22;11.90;;;;;;;;;;5042846;28;20492;-52
2022/05/22 04:33:37;;;;;;;54.72;12.15;;;;;;;;;;5043171;28;20049;-54
2022/05/22 04:36:04;;;;;;;38.05;11.70;;;;;;;;;;5044651;28;20096;-54
2022/05/22 04:38:30;;;;;;;46.88;11.20;;;;;;;;;;5041875;28;20508;-55
2022/05/22 04:41:04;;;;;;;111.20;15.40;;;;;;;;;;5040274;28;20049;-54
2022/05/22 04:43:43;;;;;;;59.25;13.32;;;;;;;;;;5040358;28;20058;-56
2022/05/22 04:46:17;;;;;;;137.25;17.35;;;;;;;;;;5039114;28;20508;-55
2022/05/22 04:48:47;;;;;;;63.78;12.55;;;;;;;;;;5038763;28;20046;-53
2022/05/22 04:51:14;;;;;;;71.53;14.75;;;;;;;;;;5041945;28;20494;-55
2022/05/22 04:53:47;;;;;;;45.70;10.75;;;;;;;;;;5039429;28;20077;-56
2022/05/22 04:56:14;;;;;;;42.72;12.00;;;;;;;;;;5038097;28;20092;-52
2022/05/22 04:58:40;;;;;;;32.92;9.85;;;;;;;;;;5040137;28;20076;-54
2022/05/22 05:01:14;;;;;;;28.40;9.45;;;;;;;;;;5039024;28;20091;-48
2022/05/22 05:03:40;;;;;;;34.40;11.43;;;;;;;;;;5036810;28;20504;-51
2022/05/22 05:06:07;;;;;;;32.78;11.02;;;;;;;;;;5039022;28;20075;-53
2022/05/22 05:08:40;;;;;;;46.90;13.73;;;;;;;;;;5039529;28;20049;-47
2022/05/22 05:11:09;;;;;;;54.78;13.32;;;;;;;;;;5037342;28;20466;-51
2022/05/22 05:13:37;;;;;;;35.55;12.13;;;;;;;;;;5040992;28;20080;-52
2022/05/22 05:16:12;;;;;;;82.15;12.52;;;;;;;;;;5041902;28;20413;-52
2022/05/22 05:18:39;;;;;;;42.63;11.45;;;;;;;;;;5038972;28;20124;-50
2022/05/22 05:21:10;;;;;;;39.70;12.45;;;;;;;;;;5037974;28;20128;-54
2022/05/22 05:23:43;;;;;;;49.95;13.00;;;;;;;;;;5038959;28;20050;-49
2022/05/22 05:26:10;;;;;;;33.63;11.88;;;;;;;;;;5040794;28;20122;-50
2022/05/22 05:28:36;;;;;;;31.52;11.93;;;;;;;;;;5039460;28;20130;-51
2022/05/22 05:31:09;;;;;;;32.25;11.80;;;;;;;;;;5036800;28;20041;-51
2022/05/22 05:33:37;;;;;;;29.05;10.98;;;;;;;;;;5037998;28;20049;-50
2022/05/22 05:36:07;;;;;;;24.95;10.75;;;;;;;;;;5035287;28;20094;-50
2022/05/22 05:38:41;;;;;;;34.97;10.98;;;;;;;;;;5039067;28;20087;-56
2022/05/22 05:41:23;;;;;;;22.83;10.48;;;;;;;;;;5039182;28;20140;-55
2022/05/22 05:44:05;;;;;;;20.38;9.63;;;;;;;;;;5038726;28;20137;-56
2022/05/22 05:46:36;;;;;;;16.33;8.05;;;;;;;;;;5037018;28;20057;-54
2022/05/22 05:49:12;;;;;;;15.93;8.95;;;;;;;;;;5042404;28;20050;-55
2022/05/22 05:51:38;;;;;;;19.33;8.27;;;;;;;;;;5034300;28;20495;-55
2022/05/22 05:54:04;;;;;;;16.42;8.60;;;;;;;;;;5036208;28;20045;-46
2022/05/22 05:56:40;;;;;;;18.67;7.28;;;;;;;;;;5034568;28;20136;-46
2022/05/22 05:59:14;;;;;;;15.30;7.47;;;;;;;;;;5038611;28;20229;-46
2022/05/22 06:01:47;;;;;;;16.95;6.95;;;;;;;;;;5033966;28;20087;-46
2022/05/22 06:04:14;;;;;;;20.17;6.97;;;;;;;;;;5036194;28;20076;-49
2022/05/22 06:06:40;;;;;;;14.93;6.18;;;;;;;;;;5036850;28;20079;-45
2022/05/22 06:09:13;;;;;;;14.70;6.00;;;;;;;;;;5032409;28;20089;-47
2022/05/22 06:11:40;;;;;;;12.23;6.13;;;;;;;;;;5025812;28;20083;-45
2022/05/22 06:14:06;;;;;;;15.25;5.43;;;;;;;;;;5038468;28;20072;-53
2022/05/22 06:16:39;;;;;;;12.23;4.60;;;;;;;;;;5036209;28;20049;-45
2022/05/22 06:19:06;;;;;;;12.60;4.25;;;;;;;;;;5033424;28;20076;-45
2022/05/22 06:21:32;;;;;;;10.40;3.53;;;;;;;;;;5032829;28;20134;-51
2022/05/22 06:24:05;;;;;;;7.60;3.28;;;;;;;;;;5034374;28;20068;-46
2022/05/22 06:26:32;;;;;;;7.35;2.92;;;;;;;;;;5040694;28;20045;-46
2022/05/22 06:28:58;;;;;;;12.50;3.10;;;;;;;;;;5035297;28;20088;-44
2022/05/22 06:31:33;;;;;;;10.02;3.28;;;;;;;;;;5035558;28;20566;-56
2022/05/22 06:34:00;;;;;;;12.57;3.67;;;;;;;;;;5036274;28;20041;-48
2022/05/22 06:36:26;;;;;;;7.22;3.30;;;;;;;;;;5034673;28;20045;-53
2022/05/22 06:41:44;;;;;;;10.38;3.00;;;;;;;;;;5038626;28;20124;-52
2022/05/22 06:44:24;;;;;;;13.15;3.35;;;;;;;;;;5035442;28;20085;-52
2022/05/22 06:46:50;;;;;;;10.23;3.30;;;;;;;;;;5033007;28;20099;-51
2022/05/22 06:49:17;;;;;;;14.32;3.30;;;;;;;;;;5033734;28;20524;-51
2022/05/22 06:51:52;;;;;;;13.48;3.92;;;;;;;;;;5032179;28;20125;-44
2022/05/22 06:54:19;;;;;;;15.35;3.72;;;;;;;;;;5036552;28;20092;-45
2022/05/22 06:56:45;;;;;;;18.58;3.53;;;;;;;;;;5034776;28;20135;-47
2022/05/22 06:59:18;;;;;;;9.50;3.03;;;;;;;;;;5035424;28;20496;-49
2022/05/22 07:01:45;;;;;;;12.35;3.78;;;;;;;;;;5036505;28;20053;-51
2022/05/22 07:04:11;;;;;;;8.68;3.75;;;;;;;;;;5037622;28;20552;-49
2022/05/22 07:06:45;;;;;;;11.00;3.38;;;;;;;;;;5034574;28;20053;-50
2022/05/22 07:09:11;;;;;;;11.73;3.60;;;;;;;;;;5033661;28;20504;-52
2022/05/22 07:11:40;;;;;;;16.38;3.50;;;;;;;;;;5036980;28;20132;-57
2022/05/22 07:14:14;;;;;;;8.63;2.92;;;;;;;;;;5037254;28;20098;-54
2022/05/22 07:16:40;;;;;;;12.20;3.42;;;;;;;;;;5037829;28;20049;-54
2022/05/22 07:19:08;;;;;;;16.50;3.80;;;;;;;;;;5037136;28;20042;-54
2022/05/22 07:21:42;;;;;;;9.02;3.00;;;;;;;;;;5036763;28;20932;-49
2022/05/22 07:24:09;;;;;;;13.25;3.50;;;;;;;;;;5038706;28;20045;-53
2022/05/22 07:26:35;;;;;;;14.93;3.25;;;;;;;;;;5035215;28;20513;-53
2022/05/22 07:29:08;;;;;;;11.60;3.25;;;;;;;;;;5037963;28;20496;-52
2022/05/22 07:31:35;;;;;;;8.93;3.13;;;;;;;;;;5036125;28;20102;-54
2022/05/22 07:34:02;;;;;;;10.65;3.65;;;;;;;;;;5038080;28;20143;-58
2022/05/22 07:36:35;;;;;;;6.97;2.58;;;;;;;;;;5032319;28;20045;-58
2022/05/22 07:39:02;;;;;;;8.18;2.72;;;;;;;;;;5037148;28;20099;-58
2022/05/22 07:41:30;;;;;;;10.23;2.63;;;;;;;;;;5035107;28;20087;-58
2022/05/22 07:44:11;;;;;;;7.53;2.88;;;;;;;;;;5036916;28;20604;-57
2022/05/22 07:46:44;;;;;;;12.15;3.20;;;;;;;;;;5038087;28;20049;-58
2022/05/22 07:52:04;;;;;;;9.73;3.20;;;;;;;;;;5036682;28;20076;-48
2022/05/22 07:54:47;;;;;;;9.80;3.20;;;;;;;;;;5037198;28;20049;-48
2022/05/22 07:57:13;;;;;;;10.50;3.77;;;;;;;;;;5036111;28;20072;-54
2022/05/22 07:59:47;;;;;;;8.27;2.55;;;;;;;;;;5036152;28;20073;-47
2022/05/22 08:02:13;;;;;;;9.67;2.87;;;;;;;;;;5036549;28;20057;-46
2022/05/22 08:04:40;;;;;;;10.18;2.60;;;;;;;;;;5039074;28;20342;-48
2022/05/22 08:07:13;;;;;;;8.57;2.50;;;;;;;;;;5039606;28;20107;-49
2022/05/22 08:09:40;;;;;;;7.15;2.47;;;;;;;;;;5034513;28;20049;-51
2022/05/22 08:12:07;;;;;;;5.75;2.45;;;;;;;;;;5037938;28;20084;-44
2022/05/22 08:14:40;;;;;;;4.45;2.28;;;;;;;;;;5037725;28;20134;-46
2022/05/22 08:17:07;;;;;;;6.15;2.70;;;;;;;;;;5035165;28;20053;-49
2022/05/22 08:19:33;;;;;;;9.35;2.08;;;;;;;;;;5040247;28;20533;-50
2022/05/22 08:22:06;;;;;;;4.40;2.05;;;;;;;;;;5037259;28;20077;-47
2022/05/22 08:24:33;;;;;;;7.63;2.58;;;;;;;;;;5039502;28;20144;-45
2022/05/22 08:27:00;;;;;;;5.55;2.42;;;;;;;;;;5038699;28;20095;-57
2022/05/22 08:29:33;;;;;;;4.32;2.17;;;;;;;;;;5040410;28;20392;-54
2022/05/22 08:32:00;;;;;;;7.35;2.38;;;;;;;;;;5041481;28;20084;-54
2022/05/22 08:34:27;;;;;;;5.43;2.10;;;;;;;;;;5039887;28;20052;-53
2022/05/22 08:37:01;;;;;;;7.40;2.78;;;;;;;;;;5036631;28;20126;-50
2022/05/22 08:39:27;;;;;;;11.93;2.30;;;;;;;;;;5038528;28;20053;-51
2022/05/22 08:42:04;;;;;;;8.18;2.40;;;;;;;;;;5041550;28;20637;-50
2022/05/22 08:44:52;;;;;;;3.20;1.88;;;;;;;;;;5010056;28;20065;-51
2022/05/22 08:47:21;;;;;;;6.72;2.42;;;;;;;;;;5018412;28;20073;-55
2022/05/22 08:49:58;;;;;;;5.88;2.10;;;;;;;;;;5020955;28;20093;-50
2022/05/22 08:52:30;;;;;;;5.45;1.90;;;;;;;;;;5019471;28;20096;-52
2022/05/22 08:55:13;;;;;;;3.50;1.98;;;;;;;;;;5019154;28;20057;-50
2022/05/22 09:00:47;;;;;;;11.70;2.38;;;;;;;;;;5020446;28;20041;-53
2022/05/22 09:03:20;;;;;;;5.93;2.60;;;;;;;;;;5019460;28;20042;-45
2022/05/22 09:05:55;;;;;;;7.95;2.60;;;;;;;;;;5022061;28;20049;-53
2022/05/22 09:08:29;;;;;;;6.60;2.60;;;;;;;;;;5022581;28;20481;-56
2022/05/22 09:11:03;;;;;;;6.38;2.50;;;;;;;;;;5020560;28;20276;-54
2022/05/22 09:13:32;;;;;;;6.30;2.50;;;;;;;;;;5024460;28;20076;-54
2022/05/22 09:16:05;;;;;;;7.93;2.50;;;;;;;;;;5025553;28;20059;-55
2022/05/22 09:18:54;;;;;;;4.97;2.40;;;;;;;;;;5022578;28;20049;-54
2022/05/22 09:21:48;;;;;;;6.03;2.20;;;;;;;;;;5021643;28;20045;-55
2022/05/22 09:24:40;;;;;;;8.65;2.00;;;;;;;;;;5022211;28;20057;-48
2022/05/22 09:27:19;;;;;;;5.03;1.85;;;;;;;;;;5020486;28;20516;-47
2022/05/22 09:29:58;;;;;;;5.18;2.05;;;;;;;;;;5021601;28;20108;-47
2022/05/22 09:32:48;;;;;;;5.20;2.00;;;;;;;;;;5017957;28;20050;-45
2022/05/22 09:35:30;;;;;;;3.97;2.03;;;;;;;;;;5020169;28;20099;-47
2022/05/22 09:38:06;;;;;;;3.40;1.90;;;;;;;;;;5015701;28;20053;-46
2022/05/22 09:40:39;;;;;;;5.00;2.05;;;;;;;;;;5015516;28;20172;-52
2022/05/22 09:43:22;;;;;;;4.40;1.83;;;;;;;;;;5019379;28;20167;-45
2022/05/22 09:46:29;;;;;;;5.22;2.38;;;;;;;;;;5034895;28;20449;-57
2022/05/22 09:49:10;;;;;;;3.95;2.17;;;;;;;;;;5042377;28;20041;-58
2022/05/22 09:51:52;;;;;;;4.93;2.00;;;;;;;;;;5037041;28;20085;-58
2022/05/22 09:54:22;;;;;;;6.07;1.90;;;;;;;;;;5040056;28;20318;-58
2022/05/22 09:57:35;;;;;;;5.22;1.70;;;;;;;;;;5040006;28;20576;-57
2022/05/22 10:00:16;;;;;;;3.90;1.60;;;;;;;;;;5038906;28;20079;-58
2022/05/22 10:02:49;;;;;;;18.33;5.10;;;;;;;;;;5037776;28;20095;-54
2022/05/22 10:05:16;;;;;;;7.10;1.90;;;;;;;;;;5040157;28;20045;-47
2022/05/22 10:07:51;;;;;;;8.40;3.03;;;;;;;;;;5037487;28;20076;-55
2022/05/22 10:10:38;;;;;;;3.22;1.92;;;;;;;;;;5038642;28;20115;-51
2022/05/22 10:13:14;;;;;;;4.95;2.22;;;;;;;;;;5042407;28;20602;-49
2022/05/22 10:16:06;;;;;;;4.10;1.60;;;;;;;;;;5039695;28;20077;-55
2022/05/22 10:18:41;;;;;;;7.47;2.78;;;;;;;;;;5040682;28;20104;-54
2022/05/22 10:21:25;;;;;;;6.85;1.70;;;;;;;;;;5034975;28;20046;-52
2022/05/22 10:23:51;;;;;;;4.15;2.05;;;;;;;;;;5039853;28;20072;-50
2022/05/22 10:27:04;;;;;;;7.38;2.85;;;;;;;;;;5037276;28;20043;-52
2022/05/22 10:29:40;;;;;;;6.78;3.17;;;;;;;;;;5037748;28;20123;-51
2022/05/22 10:32:16;;;;;;;3.97;1.58;;;;;;;;;;5037331;28;20076;-52
2022/05/22 10:34:45;;;;;;;4.93;2.00;;;;;;;;;;5037866;28;20077;-51
2022/05/22 10:37:21;;;;;;;7.22;1.80;;;;;;;;;;5037466;28;20146;-54
2022/05/22 10:39:57;;;;;;;5.85;1.90;;;;;;;;;;5035202;28;20543;-56
2022/05/22 10:42:47;;;;;;;4.85;1.77;;;;;;;;;;5039299;28;20045;-48
2022/05/22 10:45:32;;;;;;;4.78;2.10;;;;;;;;;;5038738;28;20805;-47
2022/05/22 10:48:27;;;;;;;6.43;2.15;;;;;;;;;;5037231;28;20053;-52
2022/05/22 10:51:06;;;;;;;2.95;1.88;;;;;;;;;;5038247;28;20049;-52
2022/05/22 10:53:40;;;;;;;5.75;1.63;;;;;;;;;;5037169;28;20045;-51
2022/05/22 10:56:13;;;;;;;6.47;2.00;;;;;;;;;;5039347;28;20072;-47
2022/05/22 10:58:48;;;;;;;6.22;1.80;;;;;;;;;;5035714;28;20081;-57
2022/05/22 11:01:32;;;;;;;3.65;2.10;;;;;;;;;;5036844;28;20073;-49
2022/05/22 11:04:06;;;;;;;6.18;2.63;;;;;;;;;;5039585;28;20595;-48
2022/05/22 11:06:51;;;;;;;5.68;2.05;;;;;;;;;;5037584;28;20091;-50
2022/05/22 11:09:22;;;;;;;5.43;1.77;;;;;;;;;;5037817;28;20393;-53
2022/05/22 11:12:15;;;;;;;5.10;2.03;;;;;;;;;;5031625;28;20150;-48
2022/05/22 11:14:42;;;;;;;7.43;2.40;;;;;;;;;;5037830;28;20604;-47
2022/05/22 11:17:15;;;;;;;5.78;2.08;;;;;;;;;;5037432;28;20111;-54
2022/05/22 11:19:43;;;;;;;5.50;2.15;;;;;;;;;;5037762;28;20049;-56
2022/05/22 11:22:13;;;;;;;2.58;1.65;;;;;;;;;;5037651;28;20046;-54
2022/05/22 11:24:54;;;;;;;7.60;1.80;;;;;;;;;;5037365;28;20110;-53
2022/05/22 11:27:21;;;;;;;3.45;1.50;;;;;;;;;;5037030;28;20087;-52
2022/05/22 11:30:18;;;;;;;6.35;1.90;;;;;;;;;;5037067;28;20096;-52
2022/05/22 11:32:51;;;;;;;2.80;1.92;;;;;;;;;;5027463;28;20049;-51
2022/05/22 11:35:28;;;;;;;2.63;1.83;;;;;;;;;;5040845;28;20103;-52
2022/05/22 11:37:54;;;;;;;4.68;1.80;;;;;;;;;;5037328;28;20081;-48
2022/05/22 11:40:21;;;;;;;2.97;1.60;;;;;;;;;;5037909;28;20045;-48
2022/05/22 11:43:03;;;;;;;4.25;1.80;;;;;;;;;;5043640;28;20088;-48
2022/05/22 11:45:42;;;;;;;6.60;1.80;;;;;;;;;;5023414;28;20091;-50
2022/05/22 11:48:18;;;;;;;3.85;1.75;;;;;;;;;;5017298;28;20050;-51
2022/05/22 11:50:54;;;;;;;4.78;2.10;;;;;;;;;;5022042;28;20108;-47
2022/05/22 11:53:48;;;;;;;4.72;2.00;;;;;;;;;;5019228;28;20049;-47
2022/05/22 11:56:20;;;;;;;4.72;1.90;;;;;;;;;;5005737;28;20940;-58
2022/05/22 11:59:01;;;;;;;3.60;1.83;;;;;;;;;;5017191;28;20042;-52
2022/05/22 12:01:30;;;;;;;5.25;1.95;;;;;;;;;;5018457;28;20056;-55
2022/05/22 12:04:06;;;;;;;4.05;1.70;;;;;;;;;;5020592;28;20046;-56
2022/05/22 12:06:53;;;;;;;3.72;1.75;;;;;;;;;;5018972;28;20586;-53
2022/05/22 12:09:42;;;;;;;6.35;2.13;;;;;;;;;;5021526;28;20089;-55
2022/05/22 12:12:11;;;;;;;4.07;1.70;;;;;;;;;;5019679;28;20049;-56
2022/05/22 12:15:09;;;;;;;5.38;2.15;;;;;;;;;;5016943;28;20137;-52
2022/05/22 12:17:46;;;;;;;4.20;1.90;;;;;;;;;;5019694;28;20275;-47
2022/05/22 12:20:24;;;;;;;6.82;2.17;;;;;;;;;;5021360;28;20088;-50
2022/05/22 12:23:14;;;;;;;4.85;1.90;;;;;;;;;;5022472;28;20495;-47
2022/05/22 12:25:50;;;;;;;6.00;2.30;;;;;;;;;;5021564;28;20081;-52
2022/05/22 12:28:35;;;;;;;4.45;1.83;;;;;;;;;;5022108;28;20103;-53
2022/05/22 12:31:14;;;;;;;8.70;2.20;;;;;;;;;;5018287;28;20053;-54
2022/05/22 12:33:41;;;;;;;3.45;2.13;;;;;;;;;;5017694;28;20081;-53
2022/05/22 12:36:08;;;;;;;5.50;2.22;;;;;;;;;;5023717;28;20076;-51
2022/05/22 12:38:46;;;;;;;6.32;2.20;;;;;;;;;;5017746;28;20123;-52
2022/05/22 12:41:29;;;;;;;3.78;1.90;;;;;;;;;;5022747;28;20084;-53
2022/05/22 12:44:16;;;;;;;8.43;2.22;;;;;;;;;;5019049;28;20093;-52
2022/05/22 12:46:57;;;;;;;7.25;2.42;;;;;;;;;;5040359;28;20107;-53
2022/05/22 12:49:31;;;;;;;6.38;2.60;;;;;;;;;;5040384;28;20054;-50
2022/05/22 12:52:06;;;;;;;3.70;1.92;;;;;;;;;;5036904;28;20053;-57
2022/05/22 12:54:40;;;;;;;5.05;2.15;;;;;;;;;;5038396;28;20049;-50
2022/05/22 12:57:17;;;;;;;3.90;2.07;;;;;;;;;;5038243;28;20073;-53
2022/05/22 12:59:52;;;;;;;5.43;2.38;;;;;;;;;;5035316;28;20072;-53
2022/05/22 13:02:39;;;;;;;7.40;2.90;;;;;;;;;;5038856;28;20068;-54
2022/05/22 13:05:16;;;;;;;3.80;2.60;;;;;;;;;;5040309;28;20065;-53
2022/05/22 13:07:42;;;;;;;4.93;2.47;;;;;;;;;;5041391;28;20057;-53
2022/05/22 13:10:17;;;;;;;5.83;2.63;;;;;;;;;;5040974;28;20053;-52
2022/05/22 13:13:10;;;;;;;6.18;2.75;;;;;;;;;;5039672;28;20049;-53
2022/05/22 13:15:49;;;;;;;5.00;2.63;;;;;;;;;;5040889;28;20064;-53
2022/05/22 13:18:23;;;;;;;7.60;2.47;;;;;;;;;;5039405;28;20591;-54
2022/05/22 13:20:51;;;;;;;6.65;2.70;;;;;;;;;;5039538;28;20122;-53
2022/05/22 13:23:21;;;;;;;3.53;2.35;;;;;;;;;;5038849;28;20558;-48
2022/05/22 13:25:59;;;;;;;6.82;2.53;;;;;;;;;;5041597;28;20512;-54
2022/05/22 13:28:39;;;;;;;4.97;2.10;;;;;;;;;;5041520;28;20096;-50
2022/05/22 13:31:13;;;;;;;5.05;2.20;;;;;;;;;;5039353;28;20087;-46
2022/05/22 13:33:41;;;;;;;4.40;2.40;;;;;;;;;;5039390;28;20451;-56
2022/05/22 13:36:14;;;;;;;5.43;2.60;;;;;;;;;;5042331;28;20045;-52
2022/05/22 13:38:51;;;;;;;7.60;2.22;;;;;;;;;;5038660;28;20084;-49
2022/05/22 13:41:36;;;;;;;2.95;2.05;;;;;;;;;;5035464;28;20555;-54
2022/05/22 13:44:35;;;;;;;5.65;2.30;;;;;;;;;;5039909;28;20045;-53
2022/05/22 13:47:11;;;;;;;4.13;1.95;;;;;;;;;;5029465;28;20046;-55
2022/05/22 13:49:47;;;;;;;3.40;2.00;;;;;;;;;;5026971;28;20493;-53
2022/05/22 13:52:34;;;;;;;3.60;1.90;;;;;;;;;;5031096;28;20473;-54
2022/05/22 13:55:17;;;;;;;2.60;1.48;;;;;;;;;;5027676;28;20096;-52
2022/05/22 13:58:09;;;;;;;4.10;1.80;;;;;;;;;;5031008;28;20072;-52
2022/05/22 14:00:44;;;;;;;2.05;1.80;;;;;;;;;;4999277;28;20065;-49
2022/05/22 14:03:28;;;;;;;5.22;1.80;;;;;;;;;;5026992;28;20140;-52
2022/05/22 14:06:02;;;;;;;4.43;1.92;;;;;;;;;;5031259;28;20045;-48
2022/05/22 14:08:33;;;;;;;5.25;1.63;;;;;;;;;;5028880;28;20127;-53
2022/05/22 14:11:06;;;;;;;2.45;1.83;;;;;;;;;;5026687;28;20073;-51
2022/05/22 14:14:09;;;;;;;4.60;1.80;;;;;;;;;;5026706;28;20103;-47
2022/05/22 14:16:40;;;;;;;3.10;1.92;;;;;;;;;;5005929;28;20112;-53
2022/05/22 14:19:13;;;;;;;;;;;;;;;;;;5030574;28;20095;-51
2022/05/22 14:21:45;;;;;;;5.03;1.70;;;;;;;;;;5028970;28;19956;-51
2022/05/22 14:27:16;;;;;;;1.88;1.52;;;;;;;;;;5024667;28;20099;-55
2022/05/22 14:29:43;;;;;;;3.83;1.70;;;;;;;;;;5027503;28;20112;-57
2022/05/22 14:32:35;;;;;;;4.13;1.98;;;;;;;;;;5027711;28;20095;-54
2022/05/22 14:35:14;;;;;;;8.70;1.90;;;;;;;;;;5027320;28;20451;-51
2022/05/22 14:37:41;;;;;;;6.70;2.10;;;;;;;;;;5027725;28;20053;-46
2022/05/22 14:40:25;;;;;;;6.45;2.47;;;;;;;;;;5025951;28;20052;-47
2022/05/22 14:43:00;;;;;;;4.53;2.70;;;;;;;;;;5022576;28;20049;-49
2022/05/22 14:45:36;;;;;;;7.38;2.83;;;;;;;;;;5027848;28;20073;-50
2022/05/22 14:48:19;;;;;;;3.42;2.28;;;;;;;;;;5036971;28;20495;-56
2022/05/22 14:50:48;;;;;;;5.38;2.53;;;;;;;;;;5037492;28;20179;-52
2022/05/22 14:53:27;;;;;;;8.18;2.30;;;;;;;;;;5036214;28;20442;-51
2022/05/22 14:55:57;;;;;;;2.67;2.08;;;;;;;;;;5038418;28;20044;-51
2022/05/22 14:58:33;;;;;;;4.47;2.28;;;;;;;;;;5036291;28;20049;-54
2022/05/22 15:01:10;;;;;;;3.88;1.90;;;;;;;;;;5037836;28;20050;-49
2022/05/22 15:03:51;;;;;;;4.78;1.83;;;;;;;;;;5035765;28;20526;-47
2022/05/22 15:06:19;;;;;;;5.13;2.22;;;;;;;;;;5038714;28;20096;-57
2022/05/22 15:09:04;;;;;;;3.88;1.90;;;;;;;;;;5036978;28;20049;-48
2022/05/22 15:11:32;;;;;;;4.90;1.90;;;;;;;;;;5036070;28;20063;-49
2022/05/22 15:14:18;;;;;;;2.42;1.63;;;;;;;;;;5036261;28;20449;-50
2022/05/22 15:16:45;;;;;;;5.40;2.40;;;;;;;;;;5035684;28;20053;-48
2022/05/22 15:25:32;;;;;;;4.10;2.20;;;;;;;;;;5035675;28;20050;-57
2022/05/22 15:28:10;;;;;;;3.92;1.98;;;;;;;;;;5036613;28;20080;-47
2022/05/22 15:30:54;;;;;;;5.03;2.20;;;;;;;;;;5039413;28;20126;-55
2022/05/22 15:33:21;;;;;;;5.80;2.33;;;;;;;;;;5038426;28;20048;-57
2022/05/22 15:35:58;;;;;;;4.68;2.10;;;;;;;;;;5032746;28;20128;-56
2022/05/22 15:38:28;;;;;;;3.95;1.88;;;;;;;;;;5038344;28;20139;-58
2022/05/22 15:41:06;;;;;;;5.60;2.05;;;;;;;;;;5035728;28;20161;-57
2022/05/22 15:43:36;;;;;;;3.22;1.92;;;;;;;;;;5034659;28;20141;-54